sensor_id;sensor_type;location;lat;lon;timestamp;P1;durP1;ratioP1;P2;durP2;ratioP2
52047;SDS011;46904;49.438;8.752;2024-01-30T00:02:24;5.78;;;4.10;;
52047;SDS011;46904;49.438;8.752;2024-01-30T00:04:50;5.93;;;3.55;;
52047;SDS011;46904;49.438;8.752;2024-01-30T00:07:16;7.68;;;4.00;;
52047;SDS011;46904;49.438;8.752;2024-01-30T00:09:41;6.68;;;3.90;;
52047;SDS011;46904;49.438;8.752;2024-01-30T00:12:07;5.40;;;3.72;;
52047;SDS011;46904;49.438;8.752;2024-01-30T00:14:33;5.82;;;3.50;;
52047;SDS011;46904;49.438;8.752;2024-01-30T00:16:59;7.22;;;3.83;;
52047;SDS011;46904;49.438;8.752;2024-01-30T00:19:24;8.93;;;4.35;;
52047;SDS011;46904;49.438;8.752;2024-01-30T00:21:50;7.65;;;4.78;;
52047;SDS011;46904;49.438;8.752;2024-01-30T00:24:17;7.88;;;4.57;;
52047;SDS011;46904;49.438;8.752;2024-01-30T00:26:42;8.75;;;5.53;;
52047;SDS011;46904;49.438;8.752;2024-01-30T00:29:08;7.65;;;4.78;;
52047;SDS011;46904;49.438;8.752;2024-01-30T00:31:33;8.35;;;4.68;;
52047;SDS011;46904;49.438;8.752;2024-01-30T00:33:59;7.28;;;3.72;;
52047;SDS011;46904;49.438;8.752;2024-01-30T00:36:24;5.80;;;3.17;;
52047;SDS011;46904;49.438;8.752;2024-01-30T00:38:50;3.75;;;2.88;;
52047;SDS011;46904;49.438;8.752;2024-01-30T00:41:18;5.28;;;2.97;;
52047;SDS011;46904;49.438;8.752;2024-01-30T00:43:44;12.25;;;5.75;;
52047;SDS011;46904;49.438;8.752;2024-01-30T00:46:09;15.00;;;7.75;;
52047;SDS011;46904;49.438;8.752;2024-01-30T00:48:35;19.20;;;12.02;;
52047;SDS011;46904;49.438;8.752;2024-01-30T00:51:00;14.13;;;8.13;;
52047;SDS011;46904;49.438;8.752;2024-01-30T00:53:26;14.13;;;7.78;;
52047;SDS011;46904;49.438;8.752;2024-01-30T00:55:52;16.08;;;8.43;;
52047;SDS011;46904;49.438;8.752;2024-01-30T00:58:17;16.35;;;9.07;;
52047;SDS011;46904;49.438;8.752;2024-01-30T01:00:43;12.20;;;7.82;;
52047;SDS011;46904;49.438;8.752;2024-01-30T01:03:08;9.98;;;6.80;;
52047;SDS011;46904;49.438;8.752;2024-01-30T01:05:34;12.60;;;6.72;;
52047;SDS011;46904;49.438;8.752;2024-01-30T01:07:59;13.38;;;7.03;;
52047;SDS011;46904;49.438;8.752;2024-01-30T01:10:25;18.20;;;8.77;;
52047;SDS011;46904;49.438;8.752;2024-01-30T01:12:50;15.57;;;9.10;;
52047;SDS011;46904;49.438;8.752;2024-01-30T01:15:16;13.98;;;7.93;;
52047;SDS011;46904;49.438;8.752;2024-01-30T01:17:41;16.83;;;7.97;;
52047;SDS011;46904;49.438;8.752;2024-01-30T01:20:07;11.90;;;6.65;;
52047;SDS011;46904;49.438;8.752;2024-01-30T01:22:33;12.68;;;7.72;;
52047;SDS011;46904;49.438;8.752;2024-01-30T01:24:59;11.07;;;7.10;;
52047;SDS011;46904;49.438;8.752;2024-01-30T01:27:25;14.48;;;8.20;;
52047;SDS011;46904;49.438;8.752;2024-01-30T01:29:51;15.32;;;9.05;;
52047;SDS011;46904;49.438;8.752;2024-01-30T01:32:16;16.15;;;9.27;;
52047;SDS011;46904;49.438;8.752;2024-01-30T01:34:42;17.70;;;11.23;;
52047;SDS011;46904;49.438;8.752;2024-01-30T01:37:07;15.73;;;8.93;;
52047;SDS011;46904;49.438;8.752;2024-01-30T01:39:33;18.17;;;10.13;;
52047;SDS011;46904;49.438;8.752;2024-01-30T01:41:58;16.65;;;10.00;;
52047;SDS011;46904;49.438;8.752;2024-01-30T01:44:24;14.25;;;8.60;;
52047;SDS011;46904;49.438;8.752;2024-01-30T01:46:50;16.23;;;9.85;;
52047;SDS011;46904;49.438;8.752;2024-01-30T01:49:16;12.73;;;6.70;;
52047;SDS011;46904;49.438;8.752;2024-01-30T01:51:42;8.63;;;5.07;;
52047;SDS011;46904;49.438;8.752;2024-01-30T01:54:08;4.78;;;3.47;;
52047;SDS011;46904;49.438;8.752;2024-01-30T01:56:34;5.55;;;3.15;;
52047;SDS011;46904;49.438;8.752;2024-01-30T01:59:00;3.75;;;2.72;;
52047;SDS011;46904;49.438;8.752;2024-01-30T02:01:28;10.48;;;5.95;;
52047;SDS011;46904;49.438;8.752;2024-01-30T02:03:54;14.50;;;8.70;;
52047;SDS011;46904;49.438;8.752;2024-01-30T02:06:19;17.10;;;10.45;;
52047;SDS011;46904;49.438;8.752;2024-01-30T02:08:45;20.65;;;11.70;;
52047;SDS011;46904;49.438;8.752;2024-01-30T02:11:10;15.98;;;8.98;;
52047;SDS011;46904;49.438;8.752;2024-01-30T02:13:36;18.50;;;10.68;;
52047;SDS011;46904;49.438;8.752;2024-01-30T02:16:02;17.13;;;10.70;;
52047;SDS011;46904;49.438;8.752;2024-01-30T02:18:28;19.27;;;11.27;;
52047;SDS011;46904;49.438;8.752;2024-01-30T02:20:54;19.23;;;10.45;;
52047;SDS011;46904;49.438;8.752;2024-01-30T02:23:20;18.77;;;11.18;;
52047;SDS011;46904;49.438;8.752;2024-01-30T02:25:47;18.58;;;11.18;;
52047;SDS011;46904;49.438;8.752;2024-01-30T02:28:13;18.92;;;11.57;;
52047;SDS011;46904;49.438;8.752;2024-01-30T02:30:38;16.05;;;9.68;;
52047;SDS011;46904;49.438;8.752;2024-01-30T02:33:04;17.45;;;10.57;;
52047;SDS011;46904;49.438;8.752;2024-01-30T02:35:30;19.15;;;11.02;;
52047;SDS011;46904;49.438;8.752;2024-01-30T02:37:55;17.35;;;9.75;;
52047;SDS011;46904;49.438;8.752;2024-01-30T02:40:21;14.40;;;9.60;;
52047;SDS011;46904;49.438;8.752;2024-01-30T02:42:46;14.30;;;8.68;;
52047;SDS011;46904;49.438;8.752;2024-01-30T02:45:12;15.68;;;10.55;;
52047;SDS011;46904;49.438;8.752;2024-01-30T02:47:38;15.32;;;10.57;;
52047;SDS011;46904;49.438;8.752;2024-01-30T02:50:04;14.77;;;8.88;;
52047;SDS011;46904;49.438;8.752;2024-01-30T02:52:29;13.38;;;8.52;;
52047;SDS011;46904;49.438;8.752;2024-01-30T02:54:55;11.90;;;7.75;;
52047;SDS011;46904;49.438;8.752;2024-01-30T02:57:21;12.27;;;9.10;;
52047;SDS011;46904;49.438;8.752;2024-01-30T02:59:46;13.73;;;8.68;;
52047;SDS011;46904;49.438;8.752;2024-01-30T03:02:12;10.98;;;7.72;;
52047;SDS011;46904;49.438;8.752;2024-01-30T03:04:37;8.30;;;5.97;;
52047;SDS011;46904;49.438;8.752;2024-01-30T03:07:05;6.93;;;4.38;;
52047;SDS011;46904;49.438;8.752;2024-01-30T03:09:31;5.60;;;4.00;;
52047;SDS011;46904;49.438;8.752;2024-01-30T03:11:56;4.78;;;3.70;;
52047;SDS011;46904;49.438;8.752;2024-01-30T03:14:22;4.47;;;3.20;;
52047;SDS011;46904;49.438;8.752;2024-01-30T03:16:48;3.80;;;3.08;;
52047;SDS011;46904;49.438;8.752;2024-01-30T03:19:13;6.25;;;4.35;;
52047;SDS011;46904;49.438;8.752;2024-01-30T03:21:39;10.30;;;5.72;;
52047;SDS011;46904;49.438;8.752;2024-01-30T03:24:04;9.65;;;5.07;;
52047;SDS011;46904;49.438;8.752;2024-01-30T03:26:30;9.32;;;6.57;;
52047;SDS011;46904;49.438;8.752;2024-01-30T03:28:55;11.10;;;7.03;;
52047;SDS011;46904;49.438;8.752;2024-01-30T03:31:21;8.48;;;6.18;;
52047;SDS011;46904;49.438;8.752;2024-01-30T03:33:47;7.55;;;5.55;;
52047;SDS011;46904;49.438;8.752;2024-01-30T03:36:13;10.45;;;6.13;;
52047;SDS011;46904;49.438;8.752;2024-01-30T03:38:39;9.32;;;6.32;;
52047;SDS011;46904;49.438;8.752;2024-01-30T03:41:07;8.02;;;6.03;;
52047;SDS011;46904;49.438;8.752;2024-01-30T03:43:32;11.02;;;6.68;;
52047;SDS011;46904;49.438;8.752;2024-01-30T03:45:59;11.57;;;7.00;;
52047;SDS011;46904;49.438;8.752;2024-01-30T03:48:24;10.75;;;7.55;;
52047;SDS011;46904;49.438;8.752;2024-01-30T03:50:50;12.55;;;7.35;;
52047;SDS011;46904;49.438;8.752;2024-01-30T03:53:17;13.57;;;7.85;;
52047;SDS011;46904;49.438;8.752;2024-01-30T03:55:42;13.95;;;8.13;;
52047;SDS011;46904;49.438;8.752;2024-01-30T03:58:08;14.30;;;7.95;;
52047;SDS011;46904;49.438;8.752;2024-01-30T04:00:33;14.60;;;8.05;;
52047;SDS011;46904;49.438;8.752;2024-01-30T04:02:59;19.70;;;10.00;;
52047;SDS011;46904;49.438;8.752;2024-01-30T04:05:25;20.38;;;11.13;;
52047;SDS011;46904;49.438;8.752;2024-01-30T04:07:50;15.57;;;9.35;;
52047;SDS011;46904;49.438;8.752;2024-01-30T04:10:16;18.95;;;11.18;;
52047;SDS011;46904;49.438;8.752;2024-01-30T04:12:41;21.33;;;9.85;;
52047;SDS011;46904;49.438;8.752;2024-01-30T04:15:07;17.45;;;9.63;;
52047;SDS011;46904;49.438;8.752;2024-01-30T04:17:32;13.98;;;9.00;;
52047;SDS011;46904;49.438;8.752;2024-01-30T04:19:58;13.00;;;8.15;;
52047;SDS011;46904;49.438;8.752;2024-01-30T04:22:23;9.48;;;6.15;;
52047;SDS011;46904;49.438;8.752;2024-01-30T04:24:50;10.20;;;6.07;;
52047;SDS011;46904;49.438;8.752;2024-01-30T04:27:15;6.20;;;5.25;;
52047;SDS011;46904;49.438;8.752;2024-01-30T04:29:41;10.75;;;5.70;;
52047;SDS011;46904;49.438;8.752;2024-01-30T04:32:06;12.95;;;6.82;;
52047;SDS011;46904;49.438;8.752;2024-01-30T04:34:32;11.60;;;6.57;;
52047;SDS011;46904;49.438;8.752;2024-01-30T04:36:57;15.68;;;9.27;;
52047;SDS011;46904;49.438;8.752;2024-01-30T04:39:23;15.73;;;9.35;;
52047;SDS011;46904;49.438;8.752;2024-01-30T04:41:49;15.52;;;9.93;;
52047;SDS011;46904;49.438;8.752;2024-01-30T04:44:16;13.07;;;9.00;;
52047;SDS011;46904;49.438;8.752;2024-01-30T04:46:41;17.20;;;9.75;;
52047;SDS011;46904;49.438;8.752;2024-01-30T04:49:07;10.95;;;7.85;;
52047;SDS011;46904;49.438;8.752;2024-01-30T04:51:33;12.15;;;8.48;;
52047;SDS011;46904;49.438;8.752;2024-01-30T04:53:58;11.57;;;7.70;;
52047;SDS011;46904;49.438;8.752;2024-01-30T04:56:24;12.02;;;7.25;;
52047;SDS011;46904;49.438;8.752;2024-01-30T04:58:49;11.95;;;7.63;;
52047;SDS011;46904;49.438;8.752;2024-01-30T05:01:15;13.25;;;7.75;;
52047;SDS011;46904;49.438;8.752;2024-01-30T05:03:41;11.98;;;7.35;;
52047;SDS011;46904;49.438;8.752;2024-01-30T05:06:06;11.70;;;7.47;;
52047;SDS011;46904;49.438;8.752;2024-01-30T05:08:32;10.00;;;7.00;;
52047;SDS011;46904;49.438;8.752;2024-01-30T05:11:00;9.13;;;6.82;;
52047;SDS011;46904;49.438;8.752;2024-01-30T05:13:25;10.55;;;7.30;;
52047;SDS011;46904;49.438;8.752;2024-01-30T05:15:51;11.23;;;6.53;;
52047;SDS011;46904;49.438;8.752;2024-01-30T05:18:16;8.48;;;6.22;;
52047;SDS011;46904;49.438;8.752;2024-01-30T05:20:42;9.50;;;6.82;;
52047;SDS011;46904;49.438;8.752;2024-01-30T05:23:07;10.52;;;6.03;;
52047;SDS011;46904;49.438;8.752;2024-01-30T05:25:33;11.63;;;7.20;;
52047;SDS011;46904;49.438;8.752;2024-01-30T05:27:58;9.02;;;6.30;;
52047;SDS011;46904;49.438;8.752;2024-01-30T05:30:24;9.20;;;5.97;;
52047;SDS011;46904;49.438;8.752;2024-01-30T05:32:49;8.73;;;5.75;;
52047;SDS011;46904;49.438;8.752;2024-01-30T05:35:15;7.50;;;5.70;;
52047;SDS011;46904;49.438;8.752;2024-01-30T05:37:41;9.35;;;6.13;;
52047;SDS011;46904;49.438;8.752;2024-01-30T05:40:06;7.88;;;6.15;;
52047;SDS011;46904;49.438;8.752;2024-01-30T05:42:32;9.38;;;5.60;;
52047;SDS011;46904;49.438;8.752;2024-01-30T05:44:57;8.45;;;5.45;;
52047;SDS011;46904;49.438;8.752;2024-01-30T05:47:24;9.70;;;5.72;;
52047;SDS011;46904;49.438;8.752;2024-01-30T05:49:49;4.95;;;4.07;;
52047;SDS011;46904;49.438;8.752;2024-01-30T05:52:15;6.03;;;4.68;;
52047;SDS011;46904;49.438;8.752;2024-01-30T05:54:40;6.32;;;4.25;;
52047;SDS011;46904;49.438;8.752;2024-01-30T05:57:06;7.53;;;5.35;;
52047;SDS011;46904;49.438;8.752;2024-01-30T05:59:31;5.90;;;4.53;;
52047;SDS011;46904;49.438;8.752;2024-01-30T06:01:57;8.45;;;5.75;;
52047;SDS011;46904;49.438;8.752;2024-01-30T06:04:23;7.13;;;5.05;;
52047;SDS011;46904;49.438;8.752;2024-01-30T06:06:48;7.50;;;4.78;;
52047;SDS011;46904;49.438;8.752;2024-01-30T06:09:14;6.88;;;5.20;;
52047;SDS011;46904;49.438;8.752;2024-01-30T06:11:39;6.03;;;4.57;;
52047;SDS011;46904;49.438;8.752;2024-01-30T06:14:05;10.05;;;6.38;;
52047;SDS011;46904;49.438;8.752;2024-01-30T06:16:31;13.07;;;6.75;;
52047;SDS011;46904;49.438;8.752;2024-01-30T06:18:56;19.33;;;9.73;;
52047;SDS011;46904;49.438;8.752;2024-01-30T06:21:23;15.05;;;9.95;;
52047;SDS011;46904;49.438;8.752;2024-01-30T06:23:49;16.85;;;9.82;;
52047;SDS011;46904;49.438;8.752;2024-01-30T06:26:14;14.52;;;8.65;;
52047;SDS011;46904;49.438;8.752;2024-01-30T06:28:40;17.98;;;8.52;;
52047;SDS011;46904;49.438;8.752;2024-01-30T06:31:05;18.30;;;9.15;;
52047;SDS011;46904;49.438;8.752;2024-01-30T06:33:31;17.13;;;8.77;;
52047;SDS011;46904;49.438;8.752;2024-01-30T06:35:56;14.07;;;8.20;;
52047;SDS011;46904;49.438;8.752;2024-01-30T06:38:22;18.20;;;9.10;;
52047;SDS011;46904;49.438;8.752;2024-01-30T06:40:47;15.40;;;8.63;;
52047;SDS011;46904;49.438;8.752;2024-01-30T06:43:13;13.85;;;7.85;;
52047;SDS011;46904;49.438;8.752;2024-01-30T06:45:39;17.13;;;8.52;;
52047;SDS011;46904;49.438;8.752;2024-01-30T06:48:04;14.35;;;7.43;;
52047;SDS011;46904;49.438;8.752;2024-01-30T06:50:30;11.00;;;7.50;;
52047;SDS011;46904;49.438;8.752;2024-01-30T06:52:55;13.25;;;6.57;;
52047;SDS011;46904;49.438;8.752;2024-01-30T06:55:21;14.88;;;7.70;;
52047;SDS011;46904;49.438;8.752;2024-01-30T06:57:46;13.07;;;7.78;;
52047;SDS011;46904;49.438;8.752;2024-01-30T07:00:12;11.52;;;7.57;;
52047;SDS011;46904;49.438;8.752;2024-01-30T07:02:38;14.30;;;9.48;;
52047;SDS011;46904;49.438;8.752;2024-01-30T07:05:03;15.73;;;9.48;;
52047;SDS011;46904;49.438;8.752;2024-01-30T07:07:29;17.05;;;9.20;;
52047;SDS011;46904;49.438;8.752;2024-01-30T07:09:54;17.55;;;9.05;;
52047;SDS011;46904;49.438;8.752;2024-01-30T07:12:20;13.57;;;9.25;;
52047;SDS011;46904;49.438;8.752;2024-01-30T07:14:46;13.70;;;7.80;;
52047;SDS011;46904;49.438;8.752;2024-01-30T07:17:11;17.50;;;9.32;;
52047;SDS011;46904;49.438;8.752;2024-01-30T07:19:37;15.40;;;8.27;;
52047;SDS011;46904;49.438;8.752;2024-01-30T07:22:02;12.70;;;8.13;;
52047;SDS011;46904;49.438;8.752;2024-01-30T07:24:28;12.65;;;7.53;;
52047;SDS011;46904;49.438;8.752;2024-01-30T07:26:54;14.40;;;7.97;;
52047;SDS011;46904;49.438;8.752;2024-01-30T07:29:19;12.10;;;8.43;;
52047;SDS011;46904;49.438;8.752;2024-01-30T07:31:45;14.25;;;7.78;;
52047;SDS011;46904;49.438;8.752;2024-01-30T07:34:11;10.57;;;6.53;;
52047;SDS011;46904;49.438;8.752;2024-01-30T07:36:37;9.00;;;6.18;;
52047;SDS011;46904;49.438;8.752;2024-01-30T07:39:02;6.97;;;5.15;;
52047;SDS011;46904;49.438;8.752;2024-01-30T07:41:28;9.00;;;6.43;;
52047;SDS011;46904;49.438;8.752;2024-01-30T07:43:53;10.60;;;7.38;;
52047;SDS011;46904;49.438;8.752;2024-01-30T07:46:19;11.95;;;7.97;;
52047;SDS011;46904;49.438;8.752;2024-01-30T07:48:44;11.30;;;7.22;;
52047;SDS011;46904;49.438;8.752;2024-01-30T07:51:10;12.98;;;7.85;;
52047;SDS011;46904;49.438;8.752;2024-01-30T07:53:35;12.20;;;7.93;;
52047;SDS011;46904;49.438;8.752;2024-01-30T07:56:01;14.30;;;8.00;;
52047;SDS011;46904;49.438;8.752;2024-01-30T07:58:26;16.52;;;8.32;;
52047;SDS011;46904;49.438;8.752;2024-01-30T08:00:55;15.60;;;9.25;;
52047;SDS011;46904;49.438;8.752;2024-01-30T08:03:20;11.30;;;8.35;;
52047;SDS011;46904;49.438;8.752;2024-01-30T08:05:46;14.50;;;9.95;;
52047;SDS011;46904;49.438;8.752;2024-01-30T08:08:12;15.50;;;9.50;;
52047;SDS011;46904;49.438;8.752;2024-01-30T08:10:38;13.20;;;8.73;;
52047;SDS011;46904;49.438;8.752;2024-01-30T08:13:04;14.32;;;9.27;;
52047;SDS011;46904;49.438;8.752;2024-01-30T08:15:30;11.27;;;8.00;;
52047;SDS011;46904;49.438;8.752;2024-01-30T08:17:56;13.95;;;8.52;;
52047;SDS011;46904;49.438;8.752;2024-01-30T08:20:22;12.27;;;8.48;;
52047;SDS011;46904;49.438;8.752;2024-01-30T08:22:48;16.80;;;9.70;;
52047;SDS011;46904;49.438;8.752;2024-01-30T08:25:18;15.07;;;9.88;;
52047;SDS011;46904;49.438;8.752;2024-01-30T08:27:44;16.90;;;10.48;;
52047;SDS011;46904;49.438;8.752;2024-01-30T08:30:09;18.67;;;11.43;;
52047;SDS011;46904;49.438;8.752;2024-01-30T08:32:36;17.20;;;11.35;;
52047;SDS011;46904;49.438;8.752;2024-01-30T08:35:03;19.50;;;10.95;;
52047;SDS011;46904;49.438;8.752;2024-01-30T08:37:29;20.85;;;13.25;;
52047;SDS011;46904;49.438;8.752;2024-01-30T08:39:55;23.73;;;15.27;;
52047;SDS011;46904;49.438;8.752;2024-01-30T08:42:20;20.95;;;13.95;;
52047;SDS011;46904;49.438;8.752;2024-01-30T08:44:46;21.65;;;13.10;;
52047;SDS011;46904;49.438;8.752;2024-01-30T08:47:11;21.75;;;12.85;;
52047;SDS011;46904;49.438;8.752;2024-01-30T08:49:37;17.50;;;12.07;;
52047;SDS011;46904;49.438;8.752;2024-01-30T08:52:03;23.38;;;13.25;;
52047;SDS011;46904;49.438;8.752;2024-01-30T08:54:29;21.05;;;12.10;;
52047;SDS011;46904;49.438;8.752;2024-01-30T08:56:55;18.70;;;11.93;;
52047;SDS011;46904;49.438;8.752;2024-01-30T08:59:21;16.30;;;11.57;;
52047;SDS011;46904;49.438;8.752;2024-01-30T09:01:47;18.55;;;11.25;;
52047;SDS011;46904;49.438;8.752;2024-01-30T09:04:13;18.30;;;11.30;;
52047;SDS011;46904;49.438;8.752;2024-01-30T09:06:38;16.33;;;10.93;;
52047;SDS011;46904;49.438;8.752;2024-01-30T09:09:04;17.42;;;10.55;;
52047;SDS011;46904;49.438;8.752;2024-01-30T09:11:29;15.00;;;9.40;;
52047;SDS011;46904;49.438;8.752;2024-01-30T09:13:55;16.13;;;9.73;;
52047;SDS011;46904;49.438;8.752;2024-01-30T09:16:21;14.02;;;9.65;;
52047;SDS011;46904;49.438;8.752;2024-01-30T09:18:46;13.70;;;10.32;;
52047;SDS011;46904;49.438;8.752;2024-01-30T09:21:12;15.57;;;10.68;;
52047;SDS011;46904;49.438;8.752;2024-01-30T09:23:38;11.38;;;8.50;;
52047;SDS011;46904;49.438;8.752;2024-01-30T09:26:04;10.95;;;8.35;;
52047;SDS011;46904;49.438;8.752;2024-01-30T09:28:29;11.75;;;8.88;;
52047;SDS011;46904;49.438;8.752;2024-01-30T09:30:55;14.20;;;9.15;;
52047;SDS011;46904;49.438;8.752;2024-01-30T09:33:21;14.40;;;9.50;;
52047;SDS011;46904;49.438;8.752;2024-01-30T09:35:47;18.10;;;9.52;;
52047;SDS011;46904;49.438;8.752;2024-01-30T09:38:12;16.80;;;9.63;;
52047;SDS011;46904;49.438;8.752;2024-01-30T09:40:39;17.05;;;10.35;;
52047;SDS011;46904;49.438;8.752;2024-01-30T09:43:05;17.92;;;11.43;;
52047;SDS011;46904;49.438;8.752;2024-01-30T09:45:30;15.13;;;9.98;;
52047;SDS011;46904;49.438;8.752;2024-01-30T09:47:58;15.75;;;10.60;;
52047;SDS011;46904;49.438;8.752;2024-01-30T09:50:24;20.55;;;13.30;;
52047;SDS011;46904;49.438;8.752;2024-01-30T09:52:50;15.80;;;10.25;;
52047;SDS011;46904;49.438;8.752;2024-01-30T09:55:16;14.20;;;9.63;;
52047;SDS011;46904;49.438;8.752;2024-01-30T09:57:42;12.18;;;8.80;;
52047;SDS011;46904;49.438;8.752;2024-01-30T10:00:07;16.90;;;11.07;;
52047;SDS011;46904;49.438;8.752;2024-01-30T10:02:33;18.73;;;11.25;;
52047;SDS011;46904;49.438;8.752;2024-01-30T10:04:58;14.35;;;9.50;;
52047;SDS011;46904;49.438;8.752;2024-01-30T10:07:24;13.68;;;9.60;;
52047;SDS011;46904;49.438;8.752;2024-01-30T10:09:50;12.77;;;8.85;;
52047;SDS011;46904;49.438;8.752;2024-01-30T10:12:15;11.18;;;9.23;;
52047;SDS011;46904;49.438;8.752;2024-01-30T10:14:41;11.18;;;8.35;;
52047;SDS011;46904;49.438;8.752;2024-01-30T10:17:10;9.27;;;7.50;;
52047;SDS011;46904;49.438;8.752;2024-01-30T10:19:37;10.45;;;8.10;;
52047;SDS011;46904;49.438;8.752;2024-01-30T10:22:05;10.38;;;7.53;;
52047;SDS011;46904;49.438;8.752;2024-01-30T10:24:31;18.67;;;7.77;;
52047;SDS011;46904;49.438;8.752;2024-01-30T10:26:57;12.07;;;7.65;;
52047;SDS011;46904;49.438;8.752;2024-01-30T10:29:22;9.00;;;7.07;;
52047;SDS011;46904;49.438;8.752;2024-01-30T10:32:09;9.15;;;7.07;;
52047;SDS011;46904;49.438;8.752;2024-01-30T10:34:33;8.80;;;7.05;;
52047;SDS011;46904;49.438;8.752;2024-01-30T10:39:24;11.50;;;6.90;;
52047;SDS011;46904;49.438;8.752;2024-01-30T10:41:52;10.05;;;7.00;;
52047;SDS011;46904;49.438;8.752;2024-01-30T10:44:21;10.38;;;6.80;;
52047;SDS011;46904;49.438;8.752;2024-01-30T10:47:00;7.90;;;6.85;;
52047;SDS011;46904;49.438;8.752;2024-01-30T10:49:28;10.10;;;6.70;;
52047;SDS011;46904;49.438;8.752;2024-01-30T10:51:55;10.68;;;6.80;;
52047;SDS011;46904;49.438;8.752;2024-01-30T10:54:21;8.55;;;7.43;;
52047;SDS011;46904;49.438;8.752;2024-01-30T10:56:47;9.48;;;7.50;;
52047;SDS011;46904;49.438;8.752;2024-01-30T10:59:14;9.15;;;6.97;;
52047;SDS011;46904;49.438;8.752;2024-01-30T11:01:40;9.35;;;7.60;;
52047;SDS011;46904;49.438;8.752;2024-01-30T11:04:06;11.48;;;7.47;;
52047;SDS011;46904;49.438;8.752;2024-01-30T11:06:32;10.38;;;7.43;;
52047;SDS011;46904;49.438;8.752;2024-01-30T11:09:02;13.43;;;8.95;;
52047;SDS011;46904;49.438;8.752;2024-01-30T11:11:28;14.73;;;9.48;;
52047;SDS011;46904;49.438;8.752;2024-01-30T11:13:54;14.52;;;9.68;;
52047;SDS011;46904;49.438;8.752;2024-01-30T11:16:20;15.00;;;10.40;;
52047;SDS011;46904;49.438;8.752;2024-01-30T11:18:49;12.35;;;8.40;;
52047;SDS011;46904;49.438;8.752;2024-01-30T11:21:15;11.30;;;8.27;;
52047;SDS011;46904;49.438;8.752;2024-01-30T11:23:40;12.55;;;8.27;;
52047;SDS011;46904;49.438;8.752;2024-01-30T11:26:10;9.85;;;7.07;;
52047;SDS011;46904;49.438;8.752;2024-01-30T11:28:35;9.68;;;6.95;;
52047;SDS011;46904;49.438;8.752;2024-01-30T11:31:06;8.77;;;6.90;;
52047;SDS011;46904;49.438;8.752;2024-01-30T11:33:32;10.68;;;7.03;;
52047;SDS011;46904;49.438;8.752;2024-01-30T11:35:58;10.68;;;7.22;;
52047;SDS011;46904;49.438;8.752;2024-01-30T11:38:24;8.90;;;6.70;;
52047;SDS011;46904;49.438;8.752;2024-01-30T11:40:51;10.18;;;6.55;;
52047;SDS011;46904;49.438;8.752;2024-01-30T11:43:18;8.73;;;6.45;;
52047;SDS011;46904;49.438;8.752;2024-01-30T11:45:45;7.82;;;6.25;;
52047;SDS011;46904;49.438;8.752;2024-01-30T11:48:12;8.95;;;6.57;;
52047;SDS011;46904;49.438;8.752;2024-01-30T11:50:38;9.07;;;6.50;;
52047;SDS011;46904;49.438;8.752;2024-01-30T11:53:04;10.95;;;7.28;;
52047;SDS011;46904;49.438;8.752;2024-01-30T11:55:30;8.25;;;6.30;;
52047;SDS011;46904;49.438;8.752;2024-01-30T11:57:57;8.55;;;6.55;;
52047;SDS011;46904;49.438;8.752;2024-01-30T12:00:24;9.77;;;6.10;;
52047;SDS011;46904;49.438;8.752;2024-01-30T12:02:51;8.15;;;5.95;;
52047;SDS011;46904;49.438;8.752;2024-01-30T12:05:19;9.38;;;6.30;;
52047;SDS011;46904;49.438;8.752;2024-01-30T12:07:46;9.00;;;6.43;;
52047;SDS011;46904;49.438;8.752;2024-01-30T12:10:15;10.65;;;6.68;;
52047;SDS011;46904;49.438;8.752;2024-01-30T12:12:41;8.52;;;6.13;;
52047;SDS011;46904;49.438;8.752;2024-01-30T12:15:07;8.35;;;6.60;;
52047;SDS011;46904;49.438;8.752;2024-01-30T12:17:33;7.97;;;5.93;;
52047;SDS011;46904;49.438;8.752;2024-01-30T12:22:29;8.73;;;6.40;;
52047;SDS011;46904;49.438;8.752;2024-01-30T12:24:55;6.15;;;4.90;;
52047;SDS011;46904;49.438;8.752;2024-01-30T12:27:21;8.65;;;6.50;;
52047;SDS011;46904;49.438;8.752;2024-01-30T12:29:47;8.77;;;6.68;;
52047;SDS011;46904;49.438;8.752;2024-01-30T12:32:16;9.07;;;6.38;;
52047;SDS011;46904;49.438;8.752;2024-01-30T12:34:42;10.32;;;7.53;;
52047;SDS011;46904;49.438;8.752;2024-01-30T12:37:08;9.30;;;6.32;;
52047;SDS011;46904;49.438;8.752;2024-01-30T12:39:35;9.00;;;6.80;;
52047;SDS011;46904;49.438;8.752;2024-01-30T12:42:02;9.05;;;6.93;;
52047;SDS011;46904;49.438;8.752;2024-01-30T12:44:28;10.18;;;6.53;;
52047;SDS011;46904;49.438;8.752;2024-01-30T12:46:56;8.48;;;6.15;;
52047;SDS011;46904;49.438;8.752;2024-01-30T12:49:22;8.52;;;6.53;;
52047;SDS011;46904;49.438;8.752;2024-01-30T12:51:48;7.20;;;5.97;;
52047;SDS011;46904;49.438;8.752;2024-01-30T12:54:14;8.63;;;6.40;;
52047;SDS011;46904;49.438;8.752;2024-01-30T12:56:43;8.20;;;6.63;;
52047;SDS011;46904;49.438;8.752;2024-01-30T12:59:09;9.43;;;7.03;;
52047;SDS011;46904;49.438;8.752;2024-01-30T13:01:35;8.88;;;7.00;;
52047;SDS011;46904;49.438;8.752;2024-01-30T13:04:01;11.23;;;6.18;;
52047;SDS011;46904;49.438;8.752;2024-01-30T13:06:27;8.25;;;6.28;;
52047;SDS011;46904;49.438;8.752;2024-01-30T13:08:54;7.57;;;6.00;;
52047;SDS011;46904;49.438;8.752;2024-01-30T13:11:19;8.88;;;6.75;;
52047;SDS011;46904;49.438;8.752;2024-01-30T13:13:45;7.45;;;6.32;;
52047;SDS011;46904;49.438;8.752;2024-01-30T13:16:11;8.30;;;6.15;;
52047;SDS011;46904;49.438;8.752;2024-01-30T13:18:38;8.50;;;6.65;;
52047;SDS011;46904;49.438;8.752;2024-01-30T13:21:05;8.93;;;6.47;;
52047;SDS011;46904;49.438;8.752;2024-01-30T13:23:30;9.63;;;6.35;;
52047;SDS011;46904;49.438;8.752;2024-01-30T13:25:57;8.82;;;6.70;;
52047;SDS011;46904;49.438;8.752;2024-01-30T13:28:23;9.98;;;6.68;;
52047;SDS011;46904;49.438;8.752;2024-01-30T13:30:49;10.52;;;7.20;;
52047;SDS011;46904;49.438;8.752;2024-01-30T13:33:15;11.98;;;8.20;;
52047;SDS011;46904;49.438;8.752;2024-01-30T13:35:42;12.82;;;8.23;;
52047;SDS011;46904;49.438;8.752;2024-01-30T13:38:08;11.98;;;7.45;;
52047;SDS011;46904;49.438;8.752;2024-01-30T13:40:34;12.18;;;7.03;;
52047;SDS011;46904;49.438;8.752;2024-01-30T13:43:03;8.98;;;6.68;;
52047;SDS011;46904;49.438;8.752;2024-01-30T13:45:29;9.13;;;7.00;;
52047;SDS011;46904;49.438;8.752;2024-01-30T13:47:55;9.30;;;6.50;;
52047;SDS011;46904;49.438;8.752;2024-01-30T13:50:21;9.00;;;6.60;;
52047;SDS011;46904;49.438;8.752;2024-01-30T13:52:46;7.97;;;6.28;;
52047;SDS011;46904;49.438;8.752;2024-01-30T13:55:12;12.90;;;8.65;;
52047;SDS011;46904;49.438;8.752;2024-01-30T13:57:38;10.55;;;7.30;;
52047;SDS011;46904;49.438;8.752;2024-01-30T14:00:05;8.88;;;6.60;;
52047;SDS011;46904;49.438;8.752;2024-01-30T14:02:31;9.10;;;6.75;;
52047;SDS011;46904;49.438;8.752;2024-01-30T14:04:57;8.45;;;6.65;;
52047;SDS011;46904;49.438;8.752;2024-01-30T14:07:23;8.75;;;6.82;;
52047;SDS011;46904;49.438;8.752;2024-01-30T14:09:49;9.63;;;6.90;;
52047;SDS011;46904;49.438;8.752;2024-01-30T14:12:14;8.90;;;6.55;;
52047;SDS011;46904;49.438;8.752;2024-01-30T14:14:40;8.68;;;6.57;;
52047;SDS011;46904;49.438;8.752;2024-01-30T14:17:06;9.90;;;7.03;;
52047;SDS011;46904;49.438;8.752;2024-01-30T14:19:31;10.07;;;6.57;;
52047;SDS011;46904;49.438;8.752;2024-01-30T14:21:57;10.82;;;7.90;;
52047;SDS011;46904;49.438;8.752;2024-01-30T14:24:23;11.40;;;7.75;;
52047;SDS011;46904;49.438;8.752;2024-01-30T14:26:49;9.02;;;7.18;;
52047;SDS011;46904;49.438;8.752;2024-01-30T14:29:14;8.88;;;6.38;;
52047;SDS011;46904;49.438;8.752;2024-01-30T14:31:40;7.35;;;6.22;;
52047;SDS011;46904;49.438;8.752;2024-01-30T14:34:06;8.98;;;6.75;;
52047;SDS011;46904;49.438;8.752;2024-01-30T14:36:32;9.02;;;7.20;;